Time;durP1;ratioP1;P1;durP2;ratioP2;P2;SDS_P1;SDS_P2;PMS_P1;PMS_P2;Temp;Humidity;BMP_temperature;BMP_pressure;BME280_temperature;BME280_humidity;BME280_pressure;Samples;Min_cycle;Max_cycle;Signal;HPM_P1;HPM_P2
2024/01/01 00:00:05;;;;;;;8.83;4.20;;;;;;;-145.69;52.73;52260.22;5092458;28;20560;-80
2024/01/01 00:02:32;;;;;;;10.70;5.07;;;;;;;-145.69;52.37;52234.47;5091968;28;20229;-79
2024/01/01 00:04:59;;;;;;;11.10;4.63;;;;;;;-145.69;51.96;52270.13;5092687;28;20529;-80
2024/01/01 00:07:25;;;;;;;9.73;4.20;;;;;;;-145.69;52.29;52293.88;5096174;28;20229;-80
2024/01/01 00:09:52;;;;;;;9.40;3.73;;;;;;;-145.69;51.85;52297.84;5095832;28;20198;-81
2024/01/01 00:12:19;;;;;;;7.30;3.87;;;;;;;-145.69;51.55;52293.88;5095942;28;20198;-78
2024/01/01 00:14:46;;;;;;;12.47;3.53;;;;;;;-145.69;51.63;52256.25;5095928;28;20247;-79
2024/01/01 00:17:13;;;;;;;7.53;3.17;;;;;;;-145.69;51.55;52270.13;5096084;28;20194;-79
2024/01/01 00:19:39;;;;;;;10.10;3.77;;;;;;;-145.69;51.11;52262.19;5095945;28;20247;-79
2024/01/01 00:22:06;;;;;;;8.77;2.73;;;;;;;-145.69;50.46;52287.94;5095338;28;20693;-79
2024/01/01 00:24:32;;;;;;;9.97;2.60;;;;;;;-145.69;50.76;52278.03;5095891;28;20224;-80
2024/01/01 00:26:59;;;;;;;8.97;2.60;;;;;;;-145.69;50.31;52305.75;5095506;28;20205;-79
2024/01/01 00:29:26;;;;;;;5.70;2.30;;;;;;;-145.69;50.74;52295.84;5095667;28;20210;-79
2024/01/01 00:31:53;;;;;;;5.10;2.17;;;;;;;-145.69;51.11;52285.97;5095758;28;20198;-80
2024/01/01 00:34:20;;;;;;;5.30;2.30;;;;;;;-145.69;51.21;52254.28;5095576;28;20255;-79
2024/01/01 00:36:46;;;;;;;6.67;2.37;;;;;;;-145.69;52.19;52293.88;5095599;28;20217;-79
2024/01/01 00:39:13;;;;;;;6.63;2.40;;;;;;;-145.69;52.14;52270.13;5095184;28;20201;-79
2024/01/01 00:41:39;;;;;;;4.97;2.27;;;;;;;-145.69;52.18;52285.97;5095190;28;20229;-78
2024/01/01 00:44:06;;;;;;;7.27;2.43;;;;;;;-145.69;52.31;52317.66;5095300;28;20194;-79
2024/01/01 00:46:34;;;;;;;6.97;2.27;;;;;;;-145.69;51.98;52274.06;5095242;28;20205;-79
2024/01/01 00:49:00;;;;;;;13.53;2.67;;;;;;;-145.69;51.78;52303.78;5075136;28;20206;-78
2024/01/01 00:51:27;;;;;;;6.93;2.40;;;;;;;-145.69;51.48;52280.00;5088342;28;20201;-79
2024/01/01 00:53:53;;;;;;;5.10;2.20;;;;;;;-145.69;51.53;52258.22;5095216;28;20232;-79
2024/01/01 00:56:20;;;;;;;5.17;2.27;;;;;;;-145.69;51.77;52293.88;5094999;28;20199;-79
2024/01/01 00:58:46;;;;;;;6.63;2.33;;;;;;;-145.69;51.50;52256.25;5095055;28;20226;-79
2024/01/01 01:01:12;;;;;;;10.30;2.47;;;;;;;-145.69;51.28;52270.13;5094922;28;20202;-79
2024/01/01 01:03:40;;;;;;;11.33;2.10;;;;;;;-145.69;51.24;52264.16;5095023;28;20237;-79
2024/01/01 01:06:07;;;;;;;5.97;2.00;;;;;;;-145.69;51.70;52289.91;5095046;28;20223;-79
2024/01/01 01:08:33;;;;;;;4.43;2.10;;;;;;;-145.69;51.74;52278.03;5093963;28;20199;-80
2024/01/01 01:11:00;;;;;;;6.43;2.20;;;;;;;-145.69;51.25;52295.84;5092459;28;20530;-77
2024/01/01 01:13:26;;;;;;;7.93;2.43;;;;;;;-145.69;51.90;52285.97;5093746;28;20187;-80
2024/01/01 01:15:53;;;;;;;8.93;2.13;;;;;;;-145.69;52.26;52270.13;5094386;28;20194;-80
2024/01/01 01:18:19;;;;;;;6.07;1.97;;;;;;;-145.69;52.03;52291.91;5094757;28;20247;-79
2024/01/01 01:20:48;;;;;;;9.37;2.10;;;;;;;-145.69;51.77;52262.19;5094366;28;20198;-79
2024/01/01 01:23:14;;;;;;;5.23;1.80;;;;;;;-145.69;51.20;52282.00;5094495;28;20225;-79
2024/01/01 01:25:41;;;;;;;9.03;2.53;;;;;;;-145.69;51.71;52293.88;5094429;28;20259;-79
2024/01/01 01:28:08;;;;;;;4.17;1.70;;;;;;;-145.69;51.27;52266.16;5094731;28;20220;-79
2024/01/01 01:30:34;;;;;;;5.20;1.83;;;;;;;-145.69;51.15;52268.13;5094508;28;20552;-79
2024/01/01 01:33:01;;;;;;;5.03;1.63;;;;;;;-145.69;50.59;52262.19;5094030;28;20191;-79
2024/01/01 01:35:27;;;;;;;5.57;1.77;;;;;;;-145.69;50.67;52246.34;5094477;28;20205;-79
2024/01/01 01:37:55;;;;;;;8.13;1.80;;;;;;;-145.69;51.10;52258.22;5094213;28;20541;-79
2024/01/01 01:40:22;;;;;;;5.10;2.00;;;;;;;-145.69;50.59;52293.88;5077524;28;20225;-79
2024/01/01 01:42:48;;;;;;;7.07;1.50;;;;;;;-145.69;50.22;52282.00;5073954;28;20233;-79
2024/01/01 01:45:15;;;;;;;7.63;1.90;;;;;;;-145.69;50.57;52274.06;5073840;28;20202;-79
2024/01/01 01:47:42;;;;;;;4.83;1.70;;;;;;;-145.69;50.87;52264.16;5073967;28;20199;-79
2024/01/01 01:50:11;;;;;;;8.63;1.97;;;;;;;-145.69;50.85;52287.94;5078115;28;20190;-79
2024/01/01 01:52:39;;;;;;;10.00;1.60;;;;;;;-145.69;51.07;52250.31;5093573;28;20198;-80
2024/01/01 01:55:08;;;;;;;3.60;1.80;;;;;;;-145.69;51.25;52262.19;5094223;28;20205;-79
2024/01/01 01:57:38;;;;;;;4.63;1.43;;;;;;;-145.69;50.79;52282.00;5093594;28;20246;-80
2024/01/01 02:00:05;;;;;;;5.67;1.40;;;;;;;-145.69;51.13;52256.25;5094023;28;20676;-80
2024/01/01 02:02:35;;;;;;;5.97;1.60;;;;;;;-145.69;51.51;52250.31;5093645;28;20596;-81
2024/01/01 02:05:01;;;;;;;7.67;1.83;;;;;;;-145.69;52.54;52238.44;5093828;28;20671;-80
2024/01/01 02:07:28;;;;;;;5.20;1.47;;;;;;;-145.69;52.10;52250.31;5093763;28;20197;-79
2024/01/01 02:09:54;;;;;;;2.97;1.20;;;;;;;-145.69;52.30;52250.31;5093744;28;20267;-79
2024/01/01 02:12:22;;;;;;;7.17;1.27;;;;;;;-145.69;52.07;52228.53;5093796;28;20205;-79
2024/01/01 02:14:48;;;;;;;4.00;1.43;;;;;;;-145.69;52.59;52301.81;5093865;28;20198;-79
2024/01/01 02:17:16;;;;;;;7.23;1.20;;;;;;;-145.69;52.62;52278.03;5092422;28;20718;-80
2024/01/01 02:19:43;;;;;;;3.53;1.60;;;;;;;-145.69;52.90;52309.72;5093186;28;20202;-79
2024/01/01 02:22:09;;;;;;;2.20;1.23;;;;;;;-145.69;53.19;52276.06;5093530;28;20222;-79
2024/01/01 02:24:37;;;;;;;3.77;1.43;;;;;;;-145.69;52.96;52276.06;5093428;28;20201;-79
2024/01/01 02:27:04;;;;;;;5.00;1.47;;;;;;;-145.69;53.02;52238.44;5093028;28;20194;-79
2024/01/01 02:29:30;;;;;;;2.93;1.47;;;;;;;-145.69;53.42;52270.13;5093313;28;20288;-79
2024/01/01 02:31:57;;;;;;;6.93;1.70;;;;;;;-145.69;53.57;52301.81;5093895;28;20206;-79
2024/01/01 02:34:24;;;;;;;8.23;1.40;;;;;;;-145.69;53.66;52285.97;5094172;28;20202;-79
2024/01/01 02:36:53;;;;;;;5.40;1.40;;;;;;;-145.69;53.67;52258.22;5092935;28;20224;-79
2024/01/01 02:39:20;;;;;;;4.83;1.13;;;;;;;-145.69;54.01;52283.97;5093510;28;20202;-79
2024/01/01 02:41:48;;;;;;;3.23;1.30;;;;;;;-145.69;53.41;52309.72;5093194;28;20198;-79
2024/01/01 02:44:14;;;;;;;2.27;1.40;;;;;;;-145.69;53.47;52278.03;5093263;28;20226;-79
2024/01/01 02:46:41;;;;;;;3.87;1.20;;;;;;;-145.69;53.24;52278.03;5093060;28;20206;-80
2024/01/01 02:49:07;;;;;;;3.23;1.37;;;;;;;-145.69;53.84;52262.19;5092637;28;20201;-80
2024/01/01 02:51:34;;;;;;;4.23;1.17;;;;;;;-145.69;54.34;52264.16;5092755;28;20196;-79
2024/01/01 02:54:00;;;;;;;2.37;1.10;;;;;;;-145.69;54.38;52295.84;5092922;28;20205;-80
2024/01/01 02:56:28;;;;;;;3.27;1.50;;;;;;;-145.69;55.09;52256.25;5093081;28;20198;-80
2024/01/01 02:58:55;;;;;;;4.03;1.60;;;;;;;-145.69;54.63;52278.03;5092836;28;20229;-79
2024/01/01 03:01:22;;;;;;;4.83;1.50;;;;;;;-145.69;54.63;52285.97;5092865;28;20198;-79
2024/01/01 03:03:48;;;;;;;4.80;1.60;;;;;;;-145.69;54.28;52278.03;5093034;28;20226;-79
2024/01/01 03:06:18;;;;;;;2.80;1.30;;;;;;;-145.69;54.71;52274.06;5093130;28;20209;-79
2024/01/01 03:08:44;;;;;;;4.80;1.50;;;;;;;-145.69;54.24;52248.34;5092363;28;20201;-80
2024/01/01 03:11:11;;;;;;;5.73;1.83;;;;;;;-145.69;54.25;52266.16;5092979;28;20558;-79
2024/01/01 03:13:37;;;;;;;2.77;1.40;;;;;;;-145.69;53.30;52282.00;5092934;28;20213;-80
2024/01/01 03:16:05;;;;;;;3.83;1.33;;;;;;;-145.69;53.76;52278.03;5092798;28;20198;-79
2024/01/01 03:18:32;;;;;;;8.07;1.70;;;;;;;-145.69;53.56;52266.16;5092574;28;20546;-79
2024/01/01 03:20:58;;;;;;;3.20;1.43;;;;;;;-145.69;53.25;52248.34;5092501;28;20533;-80
2024/01/01 03:23:25;;;;;;;3.37;1.60;;;;;;;-145.69;53.70;52230.50;5092740;28;20231;-80
2024/01/01 03:25:51;;;;;;;5.60;1.53;;;;;;;-145.69;53.26;52258.22;5092774;28;20198;-80
2024/01/01 03:28:18;;;;;;;2.27;1.37;;;;;;;-145.69;53.60;52264.16;5092720;28;20255;-80
2024/01/01 03:30:44;;;;;;;3.83;1.97;;;;;;;-145.69;53.19;52278.03;5092606;28;20198;-79
2024/01/01 03:33:12;;;;;;;2.43;1.60;;;;;;;-145.69;53.35;52236.44;5088814;28;20202;-78
2024/01/01 03:35:39;;;;;;;2.23;1.47;;;;;;;-145.69;53.85;52232.50;5090639;28;20202;-79
2024/01/01 03:38:06;;;;;;;6.93;2.10;;;;;;;-145.69;53.33;52280.00;5090309;28;20668;-79
2024/01/01 03:40:32;;;;;;;3.73;1.60;;;;;;;-145.69;53.13;52293.88;5091254;28;20202;-80
2024/01/01 03:43:00;;;;;;;4.13;1.67;;;;;;;-145.69;53.53;52258.22;5093880;28;20816;-79
2024/01/01 03:45:26;;;;;;;5.77;1.80;;;;;;;-145.69;53.15;52268.13;5095970;28;20199;-79
2024/01/01 03:47:53;;;;;;;5.83;1.73;;;;;;;-145.69;53.10;52278.03;5096345;28;20213;-80
2024/01/01 03:50:20;;;;;;;3.33;1.47;;;;;;;-145.69;52.82;52274.06;5096093;28;20198;-79
2024/01/01 03:52:47;;;;;;;6.43;1.93;;;;;;;-145.69;52.79;52266.16;5095892;28;20202;-79
2024/01/01 03:55:15;;;;;;;3.47;1.30;;;;;;;-145.69;53.02;52282.00;5096215;28;20202;-79
2024/01/01 03:57:41;;;;;;;6.20;1.47;;;;;;;-145.69;53.80;52285.97;5095854;28;20226;-79
2024/01/01 04:00:11;;;;;;;3.07;1.53;;;;;;;-145.69;53.58;52274.06;5096421;28;20197;-78
2024/01/01 04:02:38;;;;;;;2.23;1.27;;;;;;;-145.69;53.15;52260.22;5096257;28;20377;-77
2024/01/01 04:05:06;;;;;;;3.50;1.10;;;;;;;-145.69;52.28;52254.28;5096289;28;20194;-78
2024/01/01 04:07:34;;;;;;;7.37;1.23;;;;;;;-145.69;52.85;52268.13;5096163;28;20206;-78
2024/01/01 04:10:00;;;;;;;4.43;1.60;;;;;;;-145.69;52.72;52276.06;5096124;28;20259;-78
2024/01/01 04:12:27;;;;;;;3.37;1.23;;;;;;;-145.69;52.54;52280.00;5096235;28;20209;-79
2024/01/01 04:14:53;;;;;;;3.93;1.30;;;;;;;-145.69;53.08;52278.03;5096136;28;20198;-78
2024/01/01 04:17:19;;;;;;;5.77;1.40;;;;;;;-145.69;53.67;52262.19;5095704;28;20560;-80
2024/01/01 04:19:47;;;;;;;3.20;1.33;;;;;;;-145.69;54.18;52274.06;5095042;28;20679;-78
2024/01/01 04:22:14;;;;;;;4.73;1.50;;;;;;;-145.69;54.16;52262.19;5095863;28;20202;-80
2024/01/01 04:24:42;;;;;;;2.57;1.40;;;;;;;-145.69;54.87;52274.06;5095384;28;20717;-80
2024/01/01 04:27:09;;;;;;;7.27;1.37;;;;;;;-145.69;55.26;52285.97;5095671;28;20648;-80
2024/01/01 04:29:36;;;;;;;5.67;1.80;;;;;;;-145.69;55.44;52283.97;5095628;28;20296;-79
2024/01/01 04:32:02;;;;;;;3.30;1.20;;;;;;;-145.69;55.79;52313.69;5095739;28;20202;-79
2024/01/01 04:34:29;;;;;;;3.70;1.50;;;;;;;-145.69;55.75;52305.75;5095428;28;20266;-79
2024/01/01 04:36:55;;;;;;;5.10;1.50;;;;;;;-145.69;56.02;52266.16;5095534;28;20201;-79
2024/01/01 04:39:22;;;;;;;4.50;1.40;;;;;;;-145.69;56.02;52289.91;5095452;28;20206;-79
2024/01/01 04:41:49;;;;;;;4.30;1.07;;;;;;;-145.69;56.43;52293.88;5095582;28;20560;-80
2024/01/01 04:44:16;;;;;;;3.57;1.20;;;;;;;-145.69;56.68;52305.75;5095506;28;20230;-79
2024/01/01 04:46:42;;;;;;;1.07;0.97;;;;;;;-145.69;56.45;52291.91;5095147;28;20206;-78
2024/01/01 04:49:09;;;;;;;6.10;1.60;;;;;;;-145.69;56.49;52264.16;5095309;28;20198;-78
2024/01/01 04:51:35;;;;;;;3.43;1.57;;;;;;;-145.69;56.38;52278.03;5094623;28;20190;-79
2024/01/01 04:54:02;;;;;;;5.10;1.33;;;;;;;-145.69;56.38;52285.97;5095183;28;20205;-79
2024/01/01 04:56:28;;;;;;;4.50;1.40;;;;;;;-145.69;56.55;52260.22;5095100;28;20198;-79
2024/01/01 04:58:58;;;;;;;6.57;1.80;;;;;;;-145.69;56.08;52297.84;5095008;28;20291;-79
2024/01/01 05:01:26;;;;;;;3.90;1.50;;;;;;;-145.69;56.00;52283.97;5095115;28;20729;-79
2024/01/01 05:03:52;;;;;;;4.60;1.50;;;;;;;-145.69;55.21;52266.16;5095039;28;20221;-79
2024/01/01 05:06:19;;;;;;;2.80;1.00;;;;;;;-145.69;55.33;52278.03;5094797;28;20202;-79
2024/01/01 05:08:45;;;;;;;7.80;1.30;;;;;;;-145.69;55.46;52285.97;5095253;28;20202;-79
2024/01/01 05:11:11;;;;;;;8.47;1.63;;;;;;;-145.69;55.89;52285.97;5094833;28;20213;-79
2024/01/01 05:13:38;;;;;;;6.90;1.23;;;;;;;-145.69;55.77;52285.97;5094671;28;20272;-78
2024/01/01 05:16:09;;;;;;;4.33;1.50;;;;;;;-145.69;55.88;52272.09;5094846;28;20198;-79
2024/01/01 05:18:36;;;;;;;7.07;1.30;;;;;;;-145.69;55.42;52313.69;5094130;28;20624;-79
2024/01/01 05:21:02;;;;;;;3.37;1.00;;;;;;;-145.69;55.60;52305.75;5094021;28;20228;-79
2024/01/01 05:23:29;;;;;;;6.77;1.23;;;;;;;-145.69;56.37;52234.47;5094405;28;20225;-79
2024/01/01 05:25:55;;;;;;;7.43;1.47;;;;;;;-145.69;56.43;52301.81;5094701;28;20210;-79
2024/01/01 05:28:22;;;;;;;7.63;1.90;;;;;;;-145.69;56.32;52293.88;5094600;28;20209;-79
2024/01/01 05:30:48;;;;;;;10.93;1.30;;;;;;;-145.69;56.11;52301.81;5094544;28;20206;-79
2024/01/01 05:33:16;;;;;;;5.37;1.23;;;;;;;-145.69;56.09;52287.94;5094350;28;20210;-80
2024/01/01 05:35:42;;;;;;;4.17;1.10;;;;;;;-145.69;55.89;52287.94;5094648;28;20259;-79
2024/01/01 05:38:09;;;;;;;4.23;1.20;;;;;;;-145.69;55.52;52280.00;5078116;28;20203;-79
2024/01/01 05:40:37;;;;;;;7.17;1.40;;;;;;;-145.69;55.67;52319.63;5074303;28;20195;-81
2024/01/01 05:43:04;;;;;;;3.40;1.20;;;;;;;-145.69;55.98;52321.59;5073897;28;20206;-79
2024/01/01 05:45:31;;;;;;;8.83;1.20;;;;;;;-145.69;55.78;52297.84;5082212;28;20273;-79
2024/01/01 05:47:57;;;;;;;5.90;1.03;;;;;;;-145.69;56.75;52297.84;5093912;28;20194;-79
2024/01/01 05:50:26;;;;;;;4.77;1.23;;;;;;;-145.69;56.45;52285.97;5094321;28;20206;-80
2024/01/01 05:52:53;;;;;;;6.80;1.30;;;;;;;-145.69;56.62;52280.00;5094196;28;20209;-79
2024/01/01 05:55:19;;;;;;;3.43;1.13;;;;;;;-145.69;56.60;52278.03;5094172;28;20198;-80
2024/01/01 05:57:46;;;;;;;3.90;1.27;;;;;;;-145.69;57.59;52297.84;5093888;28;20233;-80
2024/01/01 06:00:13;;;;;;;6.03;1.30;;;;;;;-145.69;57.58;52309.72;5093954;28;20213;-80
2024/01/01 06:02:40;;;;;;;8.53;1.40;;;;;;;-145.69;57.04;52272.09;5093387;28;20206;-80
2024/01/01 06:05:07;;;;;;;6.87;1.20;;;;;;;-145.69;57.32;52280.00;5093595;28;20229;-79
2024/01/01 06:07:35;;;;;;;3.93;1.33;;;;;;;-145.69;57.10;52317.66;5094019;28;20220;-79
2024/01/01 06:10:01;;;;;;;5.67;1.50;;;;;;;-145.69;57.45;52301.81;5093728;28;20209;-79
2024/01/01 06:12:28;;;;;;;2.87;1.30;;;;;;;-145.69;57.62;52289.91;5093712;28;20579;-79
2024/01/01 06:14:55;;;;;;;5.10;1.00;;;;;;;-145.69;57.87;52278.03;5093493;28;20255;-80
2024/01/01 06:17:21;;;;;;;4.83;1.70;;;;;;;-145.69;57.83;52357.25;5093314;28;20259;-79
2024/01/01 06:19:50;;;;;;;5.00;1.10;;;;;;;-145.69;57.78;52299.81;5093542;28;20201;-78
2024/01/01 06:22:17;;;;;;;10.63;1.97;;;;;;;-145.69;57.84;52333.47;5093371;28;20672;-79
2024/01/01 06:24:45;;;;;;;8.97;1.50;;;;;;;-145.69;57.25;52321.59;5093534;28;20692;-79
2024/01/01 06:27:11;;;;;;;8.90;1.67;;;;;;;-145.69;57.51;52307.75;5093444;28;20202;-79
2024/01/01 06:29:38;;;;;;;4.73;1.37;;;;;;;-145.69;56.97;52285.97;5093424;28;20198;-79
2024/01/01 06:32:06;;;;;;;12.23;1.47;;;;;;;-145.69;57.11;52333.47;5093618;28;20209;-79
2024/01/01 06:34:33;;;;;;;5.07;1.10;;;;;;;-145.69;56.87;52341.41;5093501;28;20202;-79
2024/01/01 06:36:59;;;;;;;6.80;1.60;;;;;;;-145.69;57.28;52285.97;5093334;28;20205;-79
2024/01/01 06:39:26;;;;;;;3.77;1.40;;;;;;;-145.69;57.30;52285.97;5093471;28;20194;-78
2024/01/01 06:41:53;;;;;;;10.17;1.83;;;;;;;-145.69;57.12;52293.88;5093459;28;20198;-78
2024/01/01 06:44:25;;;;;;;3.90;1.13;;;;;;;-145.69;57.15;52319.63;5093159;28;20226;-79
2024/01/01 06:46:51;;;;;;;10.43;2.03;;;;;;;-145.69;57.43;52309.72;5092786;28;20206;-78
2024/01/01 06:49:18;;;;;;;12.40;1.50;;;;;;;-145.69;58.03;52283.97;5092979;28;20198;-80
2024/01/01 06:51:49;;;;;;;8.33;1.30;;;;;;;-145.69;57.23;52287.94;5092693;28;20206;-79
2024/01/01 06:54:15;;;;;;;7.80;1.47;;;;;;;-145.69;57.14;52309.72;5092786;28;20218;-78
2024/01/01 06:56:42;;;;;;;7.30;2.00;;;;;;;-145.69;56.00;52303.78;5092884;28;20201;-79
2024/01/01 06:59:12;;;;;;;7.33;1.87;;;;;;;-145.69;55.53;52270.13;5092813;28;20731;-78
2024/01/01 07:01:41;;;;;;;3.30;1.10;;;;;;;-145.69;55.46;52307.75;5092840;28;20202;-79
2024/01/01 07:04:07;;;;;;;5.93;1.70;;;;;;;-145.69;55.06;52285.97;5092989;28;20287;-78
2024/01/01 07:06:34;;;;;;;4.77;1.20;;;;;;;-145.69;55.21;52311.69;5092614;28;20198;-79
2024/01/01 07:09:01;;;;;;;11.63;1.77;;;;;;;-145.69;55.56;52278.03;5092938;28;20230;-78
2024/01/01 07:11:28;;;;;;;6.90;1.60;;;;;;;-145.69;55.61;52305.75;5092771;28;20247;-78
2024/01/01 07:13:54;;;;;;;7.17;1.30;;;;;;;-145.69;55.80;52301.81;5093108;28;20240;-78
2024/01/01 07:16:22;;;;;;;8.40;1.50;;;;;;;-145.69;56.00;52333.47;5096434;28;20197;-78
2024/01/01 07:18:48;;;;;;;4.33;1.50;;;;;;;-145.69;55.44;52285.97;5096378;28;20243;-80
2024/01/01 07:21:15;;;;;;;8.73;1.90;;;;;;;-145.69;55.51;52305.75;5096615;28;20194;-79
2024/01/01 07:23:41;;;;;;;4.33;1.30;;;;;;;-145.69;56.22;52293.88;5096825;28;20225;-80
2024/01/01 07:26:07;;;;;;;7.77;1.83;;;;;;;-145.69;56.26;52289.91;5097012;28;20208;-79
2024/01/01 07:28:34;;;;;;;6.27;1.67;;;;;;;-145.69;56.65;52276.06;5096926;28;20247;-79
2024/01/01 07:31:00;;;;;;;9.60;1.80;;;;;;;-145.69;56.64;52289.91;5097015;28;20198;-79
2024/01/01 07:33:28;;;;;;;5.10;1.10;;;;;;;-145.69;56.62;52313.69;5096935;28;20198;-79
2024/01/01 07:35:55;;;;;;;5.23;1.20;;;;;;;-145.69;56.50;52266.16;5096406;28;20201;-78
2024/01/01 07:38:21;;;;;;;7.73;1.07;;;;;;;-145.69;56.22;52321.59;5095868;28;20205;-79
2024/01/01 07:40:47;;;;;;;5.73;1.37;;;;;;;-145.69;56.07;52293.88;5096260;28;20194;-79
2024/01/01 07:43:14;;;;;;;8.47;1.67;;;;;;;-145.69;55.62;52293.88;5096076;28;20211;-79
2024/01/01 07:45:40;;;;;;;5.63;1.53;;;;;;;-145.69;55.61;52289.91;5096127;28;20228;-79
2024/01/01 07:48:09;;;;;;;6.53;1.57;;;;;;;-145.69;55.56;52313.69;5096594;28;20610;-79
2024/01/01 07:50:37;;;;;;;8.90;1.90;;;;;;;-145.69;55.41;52317.66;5088189;28;20648;-80
2024/01/01 07:53:04;;;;;;;8.47;3.37;;;;;;;-145.69;56.49;52287.94;5090065;28;20198;-79
2024/01/01 07:55:30;;;;;;;4.53;1.33;;;;;;;-145.69;56.11;52291.91;5092670;28;20560;-79
2024/01/01 07:57:57;;;;;;;4.93;1.47;;;;;;;-145.69;57.00;52301.81;5093990;28;20237;-79
2024/01/01 08:00:24;;;;;;;5.07;1.77;;;;;;;-145.69;56.29;52305.75;5095219;28;20251;-78
2024/01/01 08:02:51;;;;;;;8.33;1.50;;;;;;;-145.69;56.77;52282.00;5095543;28;20198;-78
2024/01/01 08:05:17;;;;;;;10.80;1.80;;;;;;;-145.69;56.45;52301.81;5095957;28;20226;-79
2024/01/01 08:07:47;;;;;;;4.20;1.07;;;;;;;-145.69;56.92;52266.16;5094811;28;20240;-79
2024/01/01 08:10:14;;;;;;;4.20;0.97;;;;;;;-145.69;57.17;52278.03;5095905;28;20724;-80
2024/01/01 08:12:41;;;;;;;3.23;1.00;;;;;;;-145.69;57.35;52297.84;5096114;28;20552;-78
2024/01/01 08:15:08;;;;;;;5.63;1.90;;;;;;;-145.69;57.15;52287.94;5095623;28;20205;-79
2024/01/01 08:17:34;;;;;;;1.23;0.73;;;;;;;-145.69;57.00;52305.75;5095611;28;20198;-79
2024/01/01 08:20:01;;;;;;;5.40;1.10;;;;;;;-145.69;56.99;52307.75;5095593;28;20198;-79
2024/01/01 08:22:27;;;;;;;2.80;0.90;;;;;;;-145.69;57.06;52291.91;5096133;28;20199;-79
2024/01/01 08:24:55;;;;;;;2.87;1.10;;;;;;;-145.69;57.13;52301.81;5095882;28;20230;-78
2024/01/01 08:27:21;;;;;;;3.17;0.80;;;;;;;-145.69;57.16;52301.81;5094852;28;20679;-78
2024/01/01 08:29:48;;;;;;;2.17;0.90;;;;;;;-145.69;57.28;52268.13;5095854;28;20251;-78
2024/01/01 08:32:14;;;;;;;7.17;1.60;;;;;;;-145.69;57.01;52305.75;5095683;28;20256;-78
2024/01/01 08:34:41;;;;;;;3.70;1.60;;;;;;;-145.69;57.78;52319.63;5095324;28;20197;-79
2024/01/01 08:37:07;;;;;;;3.63;1.30;;;;;;;-145.69;57.54;52283.97;5094766;28;20194;-80
2024/01/01 08:39:34;;;;;;;2.57;0.90;;;;;;;-145.69;57.19;52280.00;5094388;28;20202;-78
2024/01/01 08:42:01;;;;;;;4.00;1.67;;;;;;;-145.69;56.79;52262.19;5093942;28;20205;-78
2024/01/01 08:44:28;;;;;;;6.30;1.80;;;;;;;-145.69;56.25;52285.97;5094891;28;20222;-79
2024/01/01 08:46:54;;;;;;;5.30;1.37;;;;;;;-145.69;56.10;52305.75;5095364;28;20230;-80
2024/01/01 08:49:21;;;;;;;6.13;1.60;;;;;;;-145.69;56.35;52289.91;5095268;28;20225;-78
2024/01/01 08:51:48;;;;;;;4.03;2.23;;;;;;;-145.69;56.01;52313.69;5095535;28;20201;-78
2024/01/01 08:54:16;;;;;;;8.17;1.93;;;;;;;-145.69;55.68;52293.88;5095625;28;20224;-79
2024/01/01 08:56:43;;;;;;;4.60;2.00;;;;;;;-145.69;55.28;52297.84;5094884;28;20294;-80
2024/01/01 08:59:12;;;;;;;5.50;2.13;;;;;;;-145.69;54.24;52236.44;5094737;28;20249;-79
2024/01/01 09:01:39;;;;;;;5.53;1.93;;;;;;;-145.69;54.76;52291.91;5093587;28;20556;-79
2024/01/01 09:04:05;;;;;;;8.10;1.57;;;;;;;-145.69;54.26;52289.91;5094562;28;20201;-80
2024/01/01 09:06:32;;;;;;;8.33;2.60;;;;;;;-145.69;53.41;52274.06;5095283;28;20194;-79
2024/01/01 09:09:00;;;;;;;3.67;1.40;;;;;;;-145.69;53.19;52250.31;5094809;28;20198;-79
2024/01/01 09:11:26;;;;;;;5.23;2.20;;;;;;;-145.69;53.03;52266.16;5094787;28;20202;-79
2024/01/01 09:13:53;;;;;;;4.97;1.80;;;;;;;-145.69;52.43;52258.22;5094776;28;20233;-79
2024/01/01 09:16:22;;;;;;;11.43;2.50;;;;;;;-145.69;52.69;52276.06;5094049;28;20537;-78
2024/01/01 09:18:48;;;;;;;4.47;1.40;;;;;;;-145.69;52.73;52289.91;5094729;28;20226;-80
2024/01/01 09:21:16;;;;;;;4.50;1.60;;;;;;;-145.69;52.50;52230.50;5093224;28;20198;-80
2024/01/01 09:23:42;;;;;;;6.90;1.73;;;;;;;-145.69;52.06;52258.22;5094533;28;20228;-78
2024/01/01 09:26:09;;;;;;;4.27;1.23;;;;;;;-145.69;51.99;52252.28;5094414;28;20733;-79
2024/01/01 09:28:36;;;;;;;3.53;1.50;;;;;;;-145.69;52.18;52246.34;5094126;28;20194;-80
2024/01/01 09:31:03;;;;;;;7.03;1.43;;;;;;;-145.69;52.08;52250.31;5094138;28;20202;-79
2024/01/01 09:33:30;;;;;;;5.90;1.20;;;;;;;-145.69;52.85;52272.09;5094035;28;20202;-80
2024/01/01 09:35:57;;;;;;;6.60;1.57;;;;;;;-145.69;51.53;52250.31;5094210;28;20198;-79
2024/01/01 09:38:23;;;;;;;4.50;1.20;;;;;;;-145.69;51.31;52256.25;5093022;28;20594;-79
2024/01/01 09:40:50;;;;;;;9.50;1.23;;;;;;;-145.69;51.42;52276.06;5094195;28;20659;-79
2024/01/01 09:43:17;;;;;;;7.47;1.40;;;;;;;-145.69;51.46;52260.22;5094114;28;20680;-79
2024/01/01 09:45:47;;;;;;;6.30;2.03;;;;;;;-145.69;51.08;52244.38;5093376;28;20228;-80
2024/01/01 09:48:14;;;;;;;5.33;1.40;;;;;;;-145.69;51.86;52240.41;5087441;28;20198;-78
2024/01/01 09:50:42;;;;;;;6.50;1.40;;;;;;;-145.69;51.95;52244.38;5073428;28;20306;-77
2024/01/01 09:53:09;;;;;;;5.27;1.23;;;;;;;-145.69;51.86;52266.16;5073685;28;20198;-77
2024/01/01 09:55:36;;;;;;;6.27;1.40;;;;;;;-145.69;51.78;52278.03;5073746;28;20206;-78
2024/01/01 09:58:03;;;;;;;6.53;1.80;;;;;;;-145.69;51.35;52262.19;5072954;28;20254;-79
2024/01/01 10:00:30;;;;;;;11.13;1.47;;;;;;;-145.69;51.00;52282.00;5073619;28;20206;-78
2024/01/01 10:03:10;;;;;;;7.43;1.93;;;;;;;-145.69;50.19;52262.19;5078769;28;20194;-78
2024/01/01 10:05:36;;;;;;;4.70;1.20;;;;;;;-145.69;50.59;52252.28;5093539;28;20243;-78
2024/01/01 10:08:11;;;;;;;5.60;1.53;;;;;;;-145.69;50.46;52218.63;5093439;28;20198;-78
2024/01/01 10:10:38;;;;;;;9.17;1.73;;;;;;;-145.69;50.06;52218.63;5093226;28;20205;-78
2024/01/01 10:13:08;;;;;;;6.77;1.20;;;;;;;-145.69;49.67;52262.19;5093395;28;20660;-78
2024/01/01 10:15:36;;;;;;;6.70;1.40;;;;;;;-145.69;49.48;52234.47;5093667;28;20649;-78
2024/01/01 10:18:08;;;;;;;6.17;1.53;;;;;;;-145.69;49.15;52244.38;5092987;28;20206;-78
2024/01/01 10:20:34;;;;;;;5.07;1.20;;;;;;;-145.69;48.54;52250.31;5093426;28;20201;-78
2024/01/01 10:23:01;;;;;;;11.10;1.70;;;;;;;-145.69;48.60;52266.16;5093147;28;20208;-78
2024/01/01 10:25:29;;;;;;;3.80;1.30;;;;;;;-145.69;48.39;52270.13;5093665;28;20268;-78
2024/01/01 10:27:59;;;;;;;6.50;1.10;;;;;;;-145.69;47.73;52270.13;5092872;28;20641;-78
2024/01/01 10:30:26;;;;;;;5.63;1.40;;;;;;;-145.69;47.59;52244.38;5093493;28;20202;-78
2024/01/01 10:32:55;;;;;;;10.93;1.53;;;;;;;-145.69;47.95;52224.56;5092848;28;20202;-78
2024/01/01 10:35:22;;;;;;;7.57;1.30;;;;;;;-145.69;48.22;52250.31;5093010;28;20201;-78
2024/01/01 10:37:49;;;;;;;7.17;1.53;;;;;;;-145.69;46.66;52246.34;5093290;28;20198;-78
2024/01/01 10:40:15;;;;;;;5.93;1.80;;;;;;;-145.69;47.62;52266.16;5093152;28;20285;-78
2024/01/01 10:42:47;;;;;;;11.63;1.40;;;;;;;-145.69;47.61;52242.38;5092929;28;20226;-78
2024/01/01 10:45:16;;;;;;;4.60;1.07;;;;;;;-145.69;47.20;52234.47;5092832;28;20226;-78
2024/01/01 10:47:43;;;;;;;10.63;1.37;;;;;;;-145.69;46.16;52234.47;5092658;28;20201;-78
2024/01/01 10:50:25;;;;;;;3.17;1.13;;;;;;;-145.69;46.50;52256.25;5092871;28;20249;-78
2024/01/01 10:53:06;;;;;;;13.23;1.43;;;;;;;-145.69;45.26;52242.38;5092818;28;20210;-78
2024/01/01 10:55:54;;;;;;;7.70;1.67;;;;;;;-145.69;46.04;52198.81;5093311;28;20255;-78
2024/01/01 10:58:33;;;;;;;8.63;1.50;;;;;;;-145.69;45.55;52256.25;5091925;28;20233;-78
2024/01/01 11:01:06;;;;;;;7.03;1.43;;;;;;;-145.69;46.48;52242.38;5092436;28;20545;-77
2024/01/01 11:03:35;;;;;;;14.77;1.83;;;;;;;-145.69;44.64;52212.69;5092991;28;20197;-77
2024/01/01 11:06:21;;;;;;;7.17;1.30;;;;;;;-145.69;43.86;52256.25;5092873;28;20226;-77
2024/01/01 11:08:47;;;;;;;11.60;1.63;;;;;;;-145.69;45.55;52222.59;5092092;28;20435;-78
2024/01/01 11:11:21;;;;;;;12.00;1.80;;;;;;;-145.69;44.53;52246.34;5092998;28;20255;-77
2024/01/01 11:13:55;;;;;;;6.73;1.20;;;;;;;-145.69;44.31;52228.53;5093092;28;20556;-77
2024/01/01 11:16:23;;;;;;;4.27;1.20;;;;;;;-145.69;44.27;52238.44;5091871;28;20200;-77